Time;durP1;ratioP1;P1;durP2;ratioP2;P2;SDS_P1;SDS_P2;PMS_P1;PMS_P2;Temp;Humidity;BMP_temperature;BMP_pressure;BME280_temperature;BME280_humidity;BME280_pressure;Samples;Min_cycle;Max_cycle;Signal;HPM_P1;HPM_P2
2023/04/23 00:02:10;;;;;;;29.55;25.13;;;11.00;85.70;;;;;;5005307;28;20034;-73
2023/04/23 00:04:37;;;;;;;32.10;27.85;;;10.90;85.70;;;;;;5011452;28;20104;-74
2023/04/23 00:07:04;;;;;;;31.83;27.77;;;10.90;86.10;;;;;;5011329;28;20060;-74
2023/04/23 00:09:34;;;;;;;32.28;27.08;;;10.80;86.20;;;;;;4999567;28;20026;-74
2023/04/23 00:12:00;;;;;;;33.55;28.05;;;10.80;86.30;;;;;;5006318;28;20052;-74
2023/04/23 00:14:27;;;;;;;30.30;26.80;;;10.70;86.40;;;;;;5002662;28;20101;-74
2023/04/23 00:16:53;;;;;;;36.45;29.27;;;10.70;86.30;;;;;;5007123;28;20061;-74
2023/04/23 00:19:19;;;;;;;33.75;28.45;;;10.60;86.50;;;;;;5007148;28;20404;-74
2023/04/23 00:21:45;;;;;;;31.48;27.25;;;10.60;86.80;;;;;;5003545;28;20462;-74
2023/04/23 00:24:11;;;;;;;32.67;28.20;;;10.60;86.90;;;;;;5009034;28;20099;-74
2023/04/23 00:26:36;;;;;;;32.15;27.50;;;10.50;87.00;;;;;;5010842;28;20168;-74
2023/04/23 00:29:02;;;;;;;33.90;28.38;;;10.50;87.00;;;;;;5009819;28;20104;-73
2023/04/23 00:31:28;;;;;;;33.63;29.20;;;10.50;87.10;;;;;;4995654;28;20041;-73
2023/04/23 00:33:54;;;;;;;37.47;30.42;;;10.40;87.20;;;;;;5013639;28;20032;-74
2023/04/23 00:36:20;;;;;;;34.03;28.13;;;10.40;87.40;;;;;;5002881;28;20052;-73
2023/04/23 00:38:46;;;;;;;37.42;29.48;;;10.40;87.40;;;;;;5000638;28;20354;-73
2023/04/23 00:41:12;;;;;;;34.95;28.77;;;10.40;87.40;;;;;;5008661;28;20030;-73
2023/04/23 00:43:38;;;;;;;33.97;28.92;;;10.40;87.50;;;;;;5018755;28;20100;-73
2023/04/23 00:46:04;;;;;;;34.78;29.60;;;10.40;87.60;;;;;;5007330;28;20132;-73
2023/04/23 00:48:30;;;;;;;35.97;28.55;;;10.40;87.60;;;;;;5009012;28;20113;-73
2023/04/23 00:50:59;;;;;;;37.25;29.67;;;10.40;87.70;;;;;;5017960;28;20030;-74
2023/04/23 00:53:25;;;;;;;34.35;28.77;;;10.40;87.60;;;;;;5017041;28;20020;-74
2023/04/23 00:55:51;;;;;;;35.72;30.42;;;10.30;87.60;;;;;;5001886;28;20032;-74
2023/04/23 00:58:17;;;;;;;35.83;30.27;;;10.30;87.70;;;;;;4998771;28;20098;-73
2023/04/23 01:00:47;;;;;;;34.17;29.35;;;10.30;87.80;;;;;;5003043;28;20101;-74
2023/04/23 01:03:13;;;;;;;34.97;29.00;;;10.30;87.80;;;;;;5007723;28;20026;-74
2023/04/23 01:05:41;;;;;;;35.58;30.17;;;10.30;87.80;;;;;;5001494;28;20517;-73
2023/04/23 01:08:11;;;;;;;34.60;28.83;;;10.20;88.00;;;;;;5005534;28;20033;-73
2023/04/23 01:10:37;;;;;;;33.22;29.48;;;10.20;88.00;;;;;;5005199;28;20092;-74
2023/04/23 01:13:03;;;;;;;35.70;30.10;;;10.20;87.90;;;;;;5019414;28;20499;-74
2023/04/23 01:15:29;;;;;;;35.40;29.75;;;10.20;87.90;;;;;;5005411;28;20710;-74
2023/04/23 01:17:57;;;;;;;32.83;28.55;;;10.20;87.90;;;;;;5004056;28;20128;-74
2023/04/23 01:20:23;;;;;;;34.67;28.73;;;10.10;87.90;;;;;;5007500;28;20022;-74
2023/04/23 01:22:48;;;;;;;34.03;28.83;;;10.10;87.90;;;;;;5006262;28;20045;-74
2023/04/23 01:25:14;;;;;;;37.88;30.27;;;10.10;88.10;;;;;;5018149;28;20066;-73
2023/04/23 01:27:40;;;;;;;33.78;28.80;;;10.10;88.10;;;;;;4998148;28;20113;-75
2023/04/23 01:30:07;;;;;;;34.58;29.65;;;10.10;88.10;;;;;;4998792;28;20091;-74
2023/04/23 01:32:33;;;;;;;36.17;29.10;;;10.10;88.10;;;;;;5006535;28;20030;-74
2023/04/23 01:35:00;;;;;;;36.47;29.63;;;10.00;88.20;;;;;;5006809;28;20021;-74
2023/04/23 01:37:27;;;;;;;35.45;29.42;;;10.10;88.20;;;;;;5007879;28;20415;-75
2023/04/23 01:39:52;;;;;;;36.00;30.70;;;10.10;88.30;;;;;;5002755;28;20501;-74
2023/04/23 01:42:18;;;;;;;34.83;30.17;;;10.10;88.40;;;;;;5003128;28;20435;-74
2023/04/23 01:44:44;;;;;;;36.97;29.88;;;10.10;88.30;;;;;;5005302;28;20037;-74
2023/04/23 01:47:10;;;;;;;36.92;29.92;;;10.00;88.30;;;;;;4995778;28;20382;-74
2023/04/23 01:49:36;;;;;;;36.17;29.38;;;10.10;88.30;;;;;;5004394;28;20097;-74
2023/04/23 01:52:02;;;;;;;33.83;29.75;;;10.10;88.40;;;;;;5007341;28;20034;-74
2023/04/23 01:54:28;;;;;;;33.53;28.83;;;10.00;88.40;;;;;;4998213;28;20459;-73
2023/04/23 01:56:54;;;;;;;35.58;28.92;;;10.00;88.40;;;;;;5008106;28;20038;-75
2023/04/23 01:59:21;;;;;;;35.15;28.45;;;10.00;88.40;;;;;;5008115;28;20362;-74
2023/04/23 02:01:48;;;;;;;32.20;27.75;;;10.00;88.30;;;;;;5005535;28;21505;-74
2023/04/23 02:04:15;;;;;;;33.38;28.33;;;10.00;88.40;;;;;;4996306;28;20048;-74
2023/04/23 02:06:43;;;;;;;33.08;27.95;;;9.90;88.40;;;;;;5003044;28;20645;-74
2023/04/23 02:09:08;;;;;;;35.30;28.83;;;9.90;88.40;;;;;;5003820;28;20018;-74
2023/04/23 02:11:34;;;;;;;36.13;28.98;;;9.90;88.50;;;;;;5009839;28;20489;-74
2023/04/23 02:14:01;;;;;;;33.45;28.15;;;9.90;88.60;;;;;;5004945;28;20033;-74
2023/04/23 02:16:27;;;;;;;31.10;27.05;;;9.80;88.70;;;;;;5000077;28;20061;-74
2023/04/23 02:18:54;;;;;;;34.58;28.92;;;9.80;88.60;;;;;;5004818;28;20474;-74
2023/04/23 02:21:21;;;;;;;32.40;27.25;;;9.70;88.60;;;;;;5006393;28;20083;-74
2023/04/23 02:23:47;;;;;;;34.05;27.13;;;9.70;88.70;;;;;;4999067;28;20022;-74
2023/04/23 02:26:13;;;;;;;34.28;28.70;;;9.70;88.70;;;;;;5001688;28;20041;-74
2023/04/23 02:28:38;;;;;;;33.75;27.75;;;9.70;88.80;;;;;;5004192;28;20014;-74
2023/04/23 02:31:05;;;;;;;34.45;27.50;;;9.60;88.90;;;;;;5009982;28;20112;-74
2023/04/23 02:33:31;;;;;;;34.22;28.50;;;9.70;88.90;;;;;;5008414;28;20035;-74
2023/04/23 02:35:56;;;;;;;33.25;27.25;;;9.70;89.00;;;;;;5010404;28;20029;-74
2023/04/23 02:38:22;;;;;;;33.22;27.10;;;9.70;88.90;;;;;;5005158;28;20018;-74
2023/04/23 02:40:48;;;;;;;30.23;24.98;;;9.60;88.90;;;;;;5007627;28;20041;-74
2023/04/23 02:43:13;;;;;;;31.08;25.75;;;9.60;89.00;;;;;;5008369;28;20022;-74
2023/04/23 02:45:39;;;;;;;29.85;25.38;;;9.60;89.00;;;;;;5004209;28;20042;-73
2023/04/23 02:48:05;;;;;;;33.25;25.88;;;9.60;89.00;;;;;;5003407;28;20026;-74
2023/04/23 02:50:30;;;;;;;30.85;24.73;;;9.60;89.10;;;;;;5006324;28;20030;-74
2023/04/23 02:52:56;;;;;;;29.35;25.23;;;9.60;89.10;;;;;;5006554;28;20433;-73
2023/04/23 02:55:24;;;;;;;31.33;24.88;;;9.60;89.10;;;;;;5004084;28;20026;-74
2023/04/23 02:57:50;;;;;;;30.42;25.13;;;9.60;89.20;;;;;;5007332;28;20026;-74
2023/04/23 03:00:16;;;;;;;28.00;23.80;;;9.60;89.20;;;;;;5005917;28;20394;-74
2023/04/23 03:02:42;;;;;;;29.05;23.73;;;9.60;89.30;;;;;;5006019;28;20041;-74
2023/04/23 03:05:09;;;;;;;31.40;23.30;;;9.60;89.30;;;;;;5001021;28;20038;-74
2023/04/23 03:07:35;;;;;;;26.17;21.90;;;9.60;89.40;;;;;;5011213;28;20077;-74
2023/04/23 03:10:01;;;;;;;28.27;22.38;;;9.60;89.40;;;;;;5010273;28;20409;-73
2023/04/23 03:12:27;;;;;;;25.63;21.00;;;9.60;89.40;;;;;;5009096;28;20038;-73
2023/04/23 03:14:52;;;;;;;27.50;19.98;;;9.60;89.40;;;;;;5002750;28;20068;-74
2023/04/23 03:17:18;;;;;;;25.52;20.23;;;9.60;89.30;;;;;;5005276;28;20418;-74
2023/04/23 03:19:45;;;;;;;24.65;18.60;;;9.60;89.40;;;;;;5007470;28;20382;-74
2023/04/23 03:22:10;;;;;;;24.38;18.60;;;9.60;89.40;;;;;;5007219;28;20062;-74
2023/04/23 03:24:36;;;;;;;25.33;18.35;;;9.60;89.20;;;;;;4999978;28;20431;-74
2023/04/23 03:27:02;;;;;;;23.70;17.25;;;9.60;89.30;;;;;;5005756;28;20466;-74
2023/04/23 03:29:27;;;;;;;21.10;16.83;;;9.60;89.30;;;;;;5007142;28;20108;-75
2023/04/23 03:31:53;;;;;;;22.45;16.08;;;9.60;89.30;;;;;;5011067;28;20129;-74
2023/04/23 03:34:19;;;;;;;19.15;15.68;;;9.60;89.50;;;;;;5010078;28;20164;-74
2023/04/23 03:36:47;;;;;;;19.77;14.38;;;9.60;89.40;;;;;;5008795;28;20046;-74
2023/04/23 03:39:13;;;;;;;19.10;14.05;;;9.70;89.40;;;;;;5012127;28;20040;-74
2023/04/23 03:41:39;;;;;;;17.02;13.25;;;9.70;89.30;;;;;;5004876;28;20379;-74
2023/04/23 03:44:05;;;;;;;18.77;13.32;;;9.70;89.30;;;;;;5007546;28;20026;-74
2023/04/23 03:46:30;;;;;;;16.65;12.00;;;9.80;89.10;;;;;;5008043;28;20038;-74
2023/04/23 03:48:56;;;;;;;18.20;12.65;;;9.80;88.90;;;;;;5011422;28;20022;-74
2023/04/23 03:51:22;;;;;;;16.75;11.38;;;9.80;88.80;;;;;;5012293;28;20033;-74
2023/04/23 03:53:48;;;;;;;17.15;10.52;;;9.80;88.60;;;;;;4997621;28;20027;-74
2023/04/23 03:56:13;;;;;;;14.93;10.38;;;9.80;88.50;;;;;;4996033;28;20038;-74
2023/04/23 03:58:39;;;;;;;16.20;10.77;;;9.90;88.30;;;;;;5006993;28;20307;-73
2023/04/23 04:01:05;;;;;;;17.63;10.10;;;9.90;88.20;;;;;;5004684;28;20160;-73
2023/04/23 04:03:31;;;;;;;16.60;9.70;;;9.90;88.10;;;;;;5012066;28;20658;-73
2023/04/23 04:05:57;;;;;;;18.23;9.13;;;10.00;87.90;;;;;;5006577;28;20037;-73
2023/04/23 04:08:23;;;;;;;13.98;9.68;;;10.00;87.70;;;;;;5013390;28;20021;-74
2023/04/23 04:10:48;;;;;;;13.48;9.80;;;10.10;87.60;;;;;;5003594;28;20049;-73
2023/04/23 04:13:15;;;;;;;15.32;9.80;;;10.10;87.40;;;;;;5006378;28;20382;-73
2023/04/23 04:15:40;;;;;;;14.85;8.80;;;10.00;87.30;;;;;;5006950;28;20034;-74
2023/04/23 04:18:06;;;;;;;15.95;9.50;;;10.00;87.20;;;;;;5006676;28;20018;-74
2023/04/23 04:20:32;;;;;;;13.60;8.77;;;10.00;87.30;;;;;;4999530;28;20052;-73
2023/04/23 04:22:57;;;;;;;14.88;9.07;;;10.00;87.10;;;;;;5008534;28;20075;-73
2023/04/23 04:25:23;;;;;;;14.13;9.25;;;9.90;87.20;;;;;;5012601;28;20814;-73
2023/04/23 04:27:49;;;;;;;14.02;8.35;;;9.90;87.30;;;;;;5013439;28;20120;-73
2023/04/23 04:30:15;;;;;;;15.75;8.80;;;9.90;87.40;;;;;;5006085;28;20398;-74
2023/04/23 04:32:41;;;;;;;17.15;8.98;;;9.90;87.40;;;;;;5006765;28;20038;-74
2023/04/23 04:35:08;;;;;;;16.58;8.90;;;9.80;87.30;;;;;;5008789;28;20547;-73
2023/04/23 04:37:34;;;;;;;13.00;8.60;;;9.80;87.40;;;;;;5004875;28;20057;-74
2023/04/23 04:40:03;;;;;;;15.85;8.85;;;9.90;87.40;;;;;;5006166;28;20069;-73
2023/04/23 04:42:30;;;;;;;15.02;7.68;;;9.90;87.40;;;;;;5005118;28;20057;-73
2023/04/23 04:44:58;;;;;;;15.98;8.88;;;9.80;87.30;;;;;;5005108;28;20423;-73
2023/04/23 04:47:24;;;;;;;13.30;8.15;;;9.80;87.40;;;;;;5008003;28;20034;-74
2023/04/23 04:49:50;;;;;;;16.70;8.52;;;9.90;87.40;;;;;;5008478;28;20094;-74
2023/04/23 04:52:16;;;;;;;15.85;8.55;;;9.90;87.40;;;;;;5004355;28;20382;-73
2023/04/23 04:54:42;;;;;;;13.57;8.77;;;9.90;87.40;;;;;;5004517;28;20022;-73
2023/04/23 04:57:08;;;;;;;15.25;8.75;;;9.90;87.20;;;;;;5008105;28;20654;-73
2023/04/23 04:59:34;;;;;;;15.00;7.97;;;9.90;87.20;;;;;;4999470;28;20022;-73
2023/04/23 05:01:59;;;;;;;16.83;9.55;;;10.00;87.20;;;;;;5007452;28;20045;-74
2023/04/23 05:04:25;;;;;;;13.90;8.93;;;10.00;87.10;;;;;;5003712;28;20026;-73
2023/04/23 05:06:51;;;;;;;17.15;8.48;;;10.10;86.90;;;;;;5013327;28;20432;-72
2023/04/23 05:09:16;;;;;;;15.77;8.30;;;10.10;86.90;;;;;;5004411;28;20041;-72
2023/04/23 05:11:42;;;;;;;15.43;9.05;;;10.10;86.60;;;;;;5012788;28;20036;-73
2023/04/23 05:14:08;;;;;;;14.68;8.13;;;10.20;86.50;;;;;;4999718;28;20034;-73
2023/04/23 05:16:34;;;;;;;17.63;9.02;;;10.20;86.40;;;;;;4997355;28;20054;-73
2023/04/23 05:18:59;;;;;;;16.05;7.60;;;10.30;86.30;;;;;;5003327;28;20132;-73
2023/04/23 05:21:26;;;;;;;17.17;8.80;;;10.40;86.20;;;;;;5005906;28;20382;-72
2023/04/23 05:23:53;;;;;;;15.07;8.32;;;10.40;86.00;;;;;;5008647;28;20022;-73
2023/04/23 05:26:19;;;;;;;14.00;7.82;;;10.50;85.90;;;;;;5003785;28;20470;-73
2023/04/23 05:28:45;;;;;;;15.63;8.18;;;10.50;85.60;;;;;;5007321;28;20501;-73
2023/04/23 05:31:11;;;;;;;15.32;8.05;;;10.50;85.60;;;;;;5003893;28;20018;-73
2023/04/23 05:33:37;;;;;;;16.00;9.10;;;10.60;85.60;;;;;;5005786;28;20443;-73
2023/04/23 05:36:03;;;;;;;15.98;7.85;;;10.60;85.50;;;;;;5014420;28;20041;-73
2023/04/23 05:38:29;;;;;;;15.43;8.40;;;10.60;85.60;;;;;;5015099;28;20492;-72
2023/04/23 05:40:55;;;;;;;16.75;8.82;;;10.60;85.40;;;;;;5007734;28;20026;-73
2023/04/23 05:43:20;;;;;;;12.40;7.45;;;10.60;85.70;;;;;;5007373;28;20029;-74
2023/04/23 05:45:46;;;;;;;15.65;7.75;;;10.60;85.50;;;;;;5008520;28;20038;-74
2023/04/23 05:48:12;;;;;;;13.60;7.43;;;10.70;85.50;;;;;;5004446;28;20026;-75
2023/04/23 05:50:38;;;;;;;15.15;7.72;;;10.90;85.20;;;;;;5000358;28;20072;-74
2023/04/23 05:53:03;;;;;;;15.15;7.43;;;10.90;85.00;;;;;;5006446;28;20339;-74
2023/04/23 05:55:29;;;;;;;14.82;7.50;;;11.10;84.80;;;;;;5001977;28;20034;-74
2023/04/23 05:57:55;;;;;;;12.55;7.38;;;11.10;84.60;;;;;;4996035;28;20030;-74
2023/04/23 06:00:21;;;;;;;14.07;6.70;;;11.20;84.00;;;;;;5004676;28;20503;-74
2023/04/23 06:02:47;;;;;;;14.48;6.35;;;11.30;84.00;;;;;;5004887;28;20910;-75
2023/04/23 06:05:12;;;;;;;12.32;6.15;;;11.50;83.80;;;;;;4998394;28;20627;-74
2023/04/23 06:07:38;;;;;;;12.65;6.47;;;11.50;83.70;;;;;;5009381;28;20115;-73
2023/04/23 06:10:05;;;;;;;12.60;6.35;;;11.60;83.40;;;;;;5017914;28;20351;-73
2023/04/23 06:12:31;;;;;;;13.27;6.25;;;11.60;83.40;;;;;;4998334;28;20475;-74
2023/04/23 06:14:56;;;;;;;12.65;6.25;;;11.60;83.00;;;;;;5001465;28;20443;-74
2023/04/23 06:17:22;;;;;;;12.48;5.68;;;11.80;83.00;;;;;;4999781;28;20069;-74
2023/04/23 06:19:48;;;;;;;13.15;5.72;;;11.90;82.80;;;;;;5004087;28;20037;-74
2023/04/23 06:22:13;;;;;;;13.95;6.15;;;12.00;82.50;;;;;;5001323;28;20072;-74
2023/04/23 06:24:39;;;;;;;15.02;5.75;;;12.10;82.00;;;;;;5007169;28;20026;-74
2023/04/23 06:27:05;;;;;;;13.50;6.30;;;12.10;81.80;;;;;;4998790;28;20401;-74
2023/04/23 06:29:31;;;;;;;13.23;5.53;;;12.10;81.60;;;;;;5001107;28;20029;-74
2023/04/23 06:32:00;;;;;;;11.95;5.22;;;12.20;81.60;;;;;;5005693;28;20037;-74
2023/04/23 06:34:26;;;;;;;13.85;6.13;;;12.30;81.70;;;;;;5005491;28;20054;-75
2023/04/23 06:36:51;;;;;;;13.77;5.25;;;12.40;81.10;;;;;;4998878;28;20038;-74
2023/04/23 06:39:17;;;;;;;11.98;5.22;;;12.40;81.40;;;;;;5003574;28;20030;-74
2023/04/23 06:41:43;;;;;;;11.43;5.35;;;12.40;81.10;;;;;;5000402;28;20386;-74
2023/04/23 06:44:08;;;;;;;13.48;5.10;;;12.50;81.20;;;;;;5005490;28;20034;-74
2023/04/23 06:46:34;;;;;;;12.63;5.63;;;12.60;80.80;;;;;;5004599;28;20072;-74
2023/04/23 06:49:00;;;;;;;17.48;5.90;;;12.60;81.00;;;;;;5002652;28;20022;-74
2023/04/23 06:51:26;;;;;;;13.90;5.72;;;12.70;80.60;;;;;;5001273;28;20462;-74
2023/04/23 06:53:53;;;;;;;13.68;6.57;;;12.70;80.50;;;;;;5006708;28;20105;-74
2023/04/23 06:56:20;;;;;;;14.25;5.70;;;12.80;80.50;;;;;;5004336;28;20038;-74
2023/04/23 06:58:46;;;;;;;14.93;7.25;;;13.00;80.20;;;;;;5012452;28;20079;-75
2023/04/23 07:01:12;;;;;;;17.40;6.57;;;13.20;80.00;;;;;;4998371;28;20497;-74
2023/04/23 07:03:38;;;;;;;14.55;6.47;;;13.40;79.50;;;;;;5005621;28;20022;-74
2023/04/23 07:06:04;;;;;;;15.38;6.47;;;13.50;78.90;;;;;;4994205;28;20030;-74
2023/04/23 07:08:29;;;;;;;16.27;7.13;;;13.60;78.80;;;;;;5005378;28;20018;-74
2023/04/23 07:10:55;;;;;;;12.68;5.82;;;13.60;78.20;;;;;;5002436;28;20875;-74
2023/04/23 07:13:21;;;;;;;13.43;5.22;;;13.80;77.80;;;;;;5003858;28;20447;-74
2023/04/23 07:15:47;;;;;;;12.20;5.50;;;14.00;77.10;;;;;;5003362;28;20032;-74
2023/04/23 07:18:13;;;;;;;14.82;5.07;;;14.10;76.80;;;;;;5000426;28;20053;-73
2023/04/23 07:20:39;;;;;;;12.63;5.13;;;14.20;76.10;;;;;;5002964;28;20358;-74
2023/04/23 07:23:05;;;;;;;14.57;4.90;;;14.20;76.10;;;;;;5013183;28;20064;-74
2023/04/23 07:25:31;;;;;;;11.60;4.05;;;14.50;75.80;;;;;;5004139;28;20038;-74
2023/04/23 07:27:57;;;;;;;13.13;5.00;;;14.40;75.30;;;;;;5008614;28;20458;-74
2023/04/23 07:30:24;;;;;;;14.02;4.30;;;14.30;75.50;;;;;;5004887;28;20048;-74
2023/04/23 07:32:50;;;;;;;13.68;4.28;;;14.40;74.90;;;;;;5012322;28;20066;-74
2023/04/23 07:35:15;;;;;;;14.68;5.30;;;14.40;75.50;;;;;;5008130;28;20021;-73
2023/04/23 07:37:41;;;;;;;14.40;4.68;;;14.50;75.30;;;;;;5002115;28;20066;-74
2023/04/23 07:40:07;;;;;;;13.88;4.22;;;14.60;74.80;;;;;;5003991;28;20466;-73
2023/04/23 07:42:34;;;;;;;12.38;4.30;;;14.80;74.80;;;;;;5010479;28;20073;-73
2023/04/23 07:45:00;;;;;;;14.05;4.38;;;14.70;74.40;;;;;;5003136;28;20013;-73
2023/04/23 07:47:25;;;;;;;11.00;4.95;;;14.70;74.20;;;;;;5002357;28;20104;-73
2023/04/23 07:49:51;;;;;;;9.98;4.03;;;14.60;75.10;;;;;;5000152;28;20057;-73
2023/04/23 07:52:17;;;;;;;12.55;4.45;;;14.60;74.30;;;;;;5004509;28;20561;-72
2023/04/23 07:54:43;;;;;;;13.85;4.47;;;14.60;74.70;;;;;;4999873;28;20031;-74
2023/04/23 07:57:10;;;;;;;13.95;4.55;;;15.00;74.00;;;;;;5006187;28;20062;-74
2023/04/23 07:59:37;;;;;;;15.00;5.45;;;15.10;73.50;;;;;;5013724;28;20026;-75
2023/04/23 08:02:04;;;;;;;13.55;4.30;;;15.10;73.70;;;;;;5014141;28;20333;-74
2023/04/23 08:04:29;;;;;;;14.50;4.85;;;15.10;73.00;;;;;;5012451;28;20376;-73
2023/04/23 08:06:55;;;;;;;13.73;4.40;;;15.10;73.20;;;;;;5014086;28;20402;-74
2023/04/23 08:09:21;;;;;;;11.40;4.32;;;15.00;73.10;;;;;;5018592;28;20032;-74
2023/04/23 08:11:47;;;;;;;11.57;4.05;;;14.90;73.80;;;;;;5004889;28;20088;-73
2023/04/23 08:14:13;;;;;;;11.25;4.28;;;15.00;73.30;;;;;;5004504;28;20034;-72
2023/04/23 08:16:39;;;;;;;13.77;4.57;;;14.80;73.40;;;;;;4996350;28;20466;-74
2023/04/23 08:19:05;;;;;;;15.48;4.80;;;14.90;73.70;;;;;;5010137;28;20025;-71
2023/04/23 08:21:31;;;;;;;12.02;4.97;;;15.10;73.70;;;;;;5009009;28;20359;-71
2023/04/23 08:23:57;;;;;;;14.13;5.05;;;15.40;73.60;;;;;;5013546;28;20053;-71
2023/04/23 08:26:23;;;;;;;11.43;4.57;;;15.80;72.20;;;;;;5006257;28;20041;-71
2023/04/23 08:28:48;;;;;;;12.63;5.45;;;15.90;71.50;;;;;;4997398;28;20026;-72
2023/04/23 08:31:15;;;;;;;11.88;4.63;;;15.90;70.30;;;;;;5002620;28;20053;-71
2023/04/23 08:33:41;;;;;;;12.88;4.10;;;15.80;71.60;;;;;;4999436;28;20022;-72
2023/04/23 08:36:06;;;;;;;10.52;4.45;;;16.10;71.00;;;;;;5008022;28;20041;-71
2023/04/23 08:38:32;;;;;;;9.40;3.78;;;16.10;70.50;;;;;;5005728;28;20029;-72
2023/04/23 08:41:00;;;;;;;10.48;4.20;;;16.20;70.00;;;;;;5000374;28;20054;-71
2023/04/23 08:43:36;;;;;;;11.05;3.72;;;16.20;70.00;;;;;;5004028;28;20026;-71
2023/04/23 08:46:03;;;;;;;12.25;4.13;;;16.10;70.00;;;;;;4993189;28;20054;-72
2023/04/23 08:48:30;;;;;;;10.20;3.72;;;16.20;70.50;;;;;;5002024;28;20021;-71
2023/04/23 08:51:02;;;;;;;9.63;3.70;;;16.30;70.20;;;;;;5004724;28;20034;-71
2023/04/23 08:53:31;;;;;;;10.43;3.92;;;16.10;70.10;;;;;;5000013;28;20094;-71
2023/04/23 08:55:58;;;;;;;13.20;3.70;;;16.00;69.80;;;;;;4997713;28;20061;-71
2023/04/23 08:58:26;;;;;;;11.18;4.00;;;15.90;70.20;;;;;;5001408;28;20453;-72
2023/04/23 09:00:53;;;;;;;11.45;3.60;;;16.00;70.60;;;;;;5002878;28;20479;-72
2023/04/23 09:03:20;;;;;;;8.82;3.38;;;16.00;70.90;;;;;;5003188;28;20442;-71
2023/04/23 09:05:46;;;;;;;14.27;4.13;;;16.20;70.40;;;;;;4998438;28;20029;-72
2023/04/23 09:08:12;;;;;;;10.43;3.92;;;16.10;70.00;;;;;;5004986;28;20520;-72
2023/04/23 09:10:40;;;;;;;13.75;4.25;;;15.70;70.80;;;;;;5006987;28;20108;-73
2023/04/23 09:13:06;;;;;;;12.35;3.97;;;15.70;71.00;;;;;;5005515;28;20073;-72
2023/04/23 09:15:35;;;;;;;13.45;4.30;;;15.70;70.60;;;;;;5002963;28;20036;-72
2023/04/23 09:18:01;;;;;;;11.07;3.95;;;15.80;70.80;;;;;;5009956;28;20092;-72
2023/04/23 09:20:27;;;;;;;13.35;3.70;;;15.70;70.90;;;;;;5002367;28;20072;-71
2023/04/23 09:22:52;;;;;;;12.02;3.97;;;15.80;70.90;;;;;;5002770;28;20046;-72
2023/04/23 09:25:21;;;;;;;11.30;3.33;;;15.80;71.00;;;;;;5001925;28;20030;-72
2023/04/23 09:27:48;;;;;;;11.15;4.47;;;15.80;70.80;;;;;;5009024;28;20054;-72
2023/04/23 09:30:15;;;;;;;12.15;3.67;;;15.80;71.40;;;;;;5002347;28;20030;-71
2023/04/23 09:32:42;;;;;;;14.40;4.32;;;15.80;71.50;;;;;;5004029;28;20057;-71
2023/04/23 09:35:10;;;;;;;12.52;3.72;;;15.90;70.40;;;;;;5001553;28;20041;-72
2023/04/23 09:37:36;;;;;;;10.90;3.58;;;15.90;70.70;;;;;;5004634;28;20045;-72
2023/04/23 09:40:08;;;;;;;11.73;3.85;;;16.00;70.60;;;;;;5000328;28;20104;-72
2023/04/23 09:42:34;;;;;;;9.10;3.60;;;16.20;69.80;;;;;;4994216;28;20435;-72
2023/04/23 09:45:11;;;;;;;14.40;3.90;;;16.10;70.50;;;;;;5008321;28;20192;-71
2023/04/23 09:47:38;;;;;;;9.00;3.72;;;16.00;70.00;;;;;;5004057;28;20040;-71
2023/04/23 09:50:05;;;;;;;22.85;12.02;;;15.80;70.80;;;;;;5006389;28;20103;-71
2023/04/23 09:52:38;;;;;;;39.33;26.52;;;15.80;71.30;;;;;;5007574;28;20032;-71
2023/04/23 09:55:04;;;;;;;15.60;7.35;;;16.00;69.90;;;;;;5001088;28;20529;-71
2023/04/23 09:57:51;;;;;;;21.15;10.93;;;16.00;69.10;;;;;;5005118;28;20030;-71
2023/04/23 10:00:21;;;;;;;19.48;7.85;;;15.90;69.30;;;;;;4993135;28;20057;-72
2023/04/23 10:02:49;;;;;;;13.18;5.80;;;15.80;69.00;;;;;;4998730;28;20050;-72
2023/04/23 10:05:19;;;;;;;15.02;4.90;;;15.60;69.60;;;;;;5000196;28;20026;-72
2023/04/23 10:07:47;;;;;;;11.82;3.92;;;15.60;70.80;;;;;;5007092;28;20293;-71
2023/04/23 10:10:13;;;;;;;10.20;4.40;;;15.70;70.90;;;;;;5009272;28;20132;-71
2023/04/23 10:12:40;;;;;;;22.73;12.45;;;15.90;69.40;;;;;;5011387;28;20714;-71
2023/04/23 10:15:07;;;;;;;16.15;7.63;;;16.00;69.40;;;;;;5013344;28;20025;-71
2023/04/23 10:17:35;;;;;;;21.45;12.15;;;15.90;68.80;;;;;;5005017;28;20069;-71
2023/04/23 10:20:01;;;;;;;13.68;5.13;;;16.00;68.90;;;;;;5002917;28;20050;-71
2023/04/23 10:22:29;;;;;;;12.02;5.90;;;16.20;68.70;;;;;;5011172;28;20046;-71
2023/04/23 10:24:57;;;;;;;9.90;3.78;;;16.30;68.50;;;;;;5008731;28;20059;-71
2023/04/23 10:27:27;;;;;;;11.57;4.38;;;16.40;68.60;;;;;;5001040;28;20045;-72
2023/04/23 10:29:53;;;;;;;9.85;3.42;;;16.60;68.70;;;;;;5000225;28;20026;-71
2023/04/23 10:32:20;;;;;;;11.60;3.80;;;16.60;67.60;;;;;;5003521;28;20045;-72
2023/04/23 10:34:46;;;;;;;12.50;4.28;;;16.60;67.70;;;;;;5002816;28;20034;-71
2023/04/23 10:37:14;;;;;;;11.10;3.60;;;16.80;66.80;;;;;;4998458;28;20029;-71
2023/04/23 10:39:43;;;;;;;12.95;3.67;;;16.90;66.10;;;;;;4993546;28;20418;-71
2023/04/23 10:42:12;;;;;;;10.88;2.92;;;17.20;65.00;;;;;;5000716;28;20091;-71
2023/04/23 10:44:40;;;;;;;7.72;2.72;;;17.30;63.90;;;;;;5003165;28;20077;-72
2023/04/23 10:47:11;;;;;;;8.75;2.92;;;17.30;63.20;;;;;;4996452;28;20045;-72
2023/04/23 10:49:38;;;;;;;10.10;2.40;;;17.10;63.90;;;;;;4999268;28;20085;-74
2023/04/23 10:52:16;;;;;;;7.40;2.05;;;17.20;63.20;;;;;;5000454;28;20553;-72
2023/04/23 10:54:47;;;;;;;8.30;2.40;;;17.30;62.40;;;;;;5009285;28;20026;-72
2023/04/23 10:57:13;;;;;;;6.13;2.10;;;17.10;62.40;;;;;;5002523;28;20053;-72
2023/04/23 10:59:50;;;;;;;8.27;2.00;;;17.00;62.60;;;;;;5007604;28;20374;-71
2023/04/23 11:02:16;;;;;;;9.68;2.05;;;17.20;63.20;;;;;;5004581;28;20042;-72
2023/04/23 11:04:53;;;;;;;9.77;2.55;;;17.40;62.90;;;;;;5005188;28;20065;-72
2023/04/23 11:07:19;;;;;;;8.50;2.17;;;17.50;63.70;;;;;;5004575;28;20120;-72
2023/04/23 11:09:46;;;;;;;5.97;1.80;;;17.10;65.70;;;;;;5008549;28;20026;-72
2023/04/23 11:12:28;;;;;;;7.60;1.70;;;16.70;62.70;;;;;;5003387;28;20033;-72
2023/04/23 11:14:55;;;;;;;7.60;1.98;;;16.60;61.80;;;;;;5009287;28;20018;-72
2023/04/23 11:17:31;;;;;;;5.35;1.98;;;16.10;63.70;;;;;;5007469;28;20034;-73
2023/04/23 11:20:21;;;;;;;6.57;2.00;;;16.10;65.00;;;;;;5005958;28;20061;-72
2023/04/23 11:22:51;;;;;;;5.95;2.20;;;16.10;64.30;;;;;;5004659;28;20034;-73
2023/04/23 11:25:25;;;;;;;6.57;2.15;;;16.10;65.80;;;;;;5003890;28;20030;-73
2023/04/23 11:27:53;;;;;;;9.40;2.50;;;16.00;66.50;;;;;;5007094;28;20037;-74
2023/04/23 11:30:26;;;;;;;6.80;2.30;;;15.80;67.30;;;;;;5005196;28;20065;-73
2023/04/23 11:32:54;;;;;;;8.68;2.80;;;15.70;67.50;;;;;;5011138;28;20452;-73
2023/04/23 11:35:23;;;;;;;9.32;2.50;;;15.60;67.30;;;;;;5002821;28;20040;-73
2023/04/23 11:37:49;;;;;;;7.13;2.60;;;15.50;67.70;;;;;;5004130;28;20080;-73
2023/04/23 11:40:18;;;;;;;13.40;7.40;;;15.50;68.40;;;;;;5005116;28;20037;-72
2023/04/23 11:42:48;;;;;;;9.23;2.60;;;15.80;69.30;;;;;;4997168;28;20334;-73
2023/04/23 11:45:34;;;;;;;6.95;2.08;;;15.50;69.00;;;;;;5004603;28;20025;-74
2023/04/23 11:48:00;;;;;;;10.90;2.78;;;15.50;68.50;;;;;;5000470;28;20041;-74
2023/04/23 11:50:32;;;;;;;6.63;2.33;;;15.40;69.80;;;;;;5002782;28;20022;-74
2023/04/23 11:53:05;;;;;;;9.57;2.40;;;15.40;70.50;;;;;;5006224;28;20362;-73
2023/04/23 11:55:31;;;;;;;10.03;2.57;;;15.50;70.90;;;;;;5005839;28;20360;-74
2023/04/23 11:57:57;;;;;;;7.45;2.03;;;15.80;71.50;;;;;;5006461;28;20049;-73
2023/04/23 12:00:25;;;;;;;8.63;2.28;;;16.10;72.40;;;;;;5006156;28;20013;-73
2023/04/23 12:02:57;;;;;;;7.97;2.63;;;16.20;72.10;;;;;;5001797;28;20036;-73
2023/04/23 12:05:44;;;;;;;8.80;2.60;;;16.10;71.30;;;;;;5004253;28;20032;-74
2023/04/23 12:08:13;;;;;;;11.18;2.63;;;16.10;71.40;;;;;;5005400;28;20343;-73
2023/04/23 12:10:50;;;;;;;9.98;2.65;;;15.80;72.40;;;;;;5001432;28;20152;-73
2023/04/23 12:13:38;;;;;;;9.20;3.05;;;15.70;74.10;;;;;;5002857;28;20017;-73
2023/04/23 12:16:04;;;;;;;10.23;2.90;;;15.50;74.40;;;;;;4999875;28;20042;-73
2023/04/23 12:18:38;;;;;;;8.55;3.00;;;15.50;74.80;;;;;;5003145;28;20049;-73
2023/04/23 12:21:08;;;;;;;11.32;2.80;;;15.60;76.00;;;;;;5006246;28;20055;-73
2023/04/23 12:23:35;;;;;;;6.68;2.25;;;15.80;74.20;;;;;;5007433;28;20148;-73
2023/04/23 12:26:05;;;;;;;5.88;2.15;;;15.60;74.20;;;;;;5004115;28;20036;-73
2023/04/23 12:28:31;;;;;;;6.22;2.45;;;15.30;73.20;;;;;;5004371;28;20022;-72
2023/04/23 12:31:01;;;;;;;7.82;2.65;;;15.50;73.80;;;;;;5011090;28;20243;-73
2023/04/23 12:33:30;;;;;;;7.38;2.40;;;15.20;73.20;;;;;;5008570;28;20113;-73
2023/04/23 12:35:56;;;;;;;5.95;2.70;;;15.40;73.20;;;;;;4998830;28;20533;-73
2023/04/23 12:38:25;;;;;;;7.60;3.60;;;15.60;72.90;;;;;;5005485;28;20014;-73